createdAt,value
2023-05-26T00:00:57.970Z,67.10
2023-05-26T00:04:00.045Z,67.10
2023-05-26T00:07:02.336Z,67.30
2023-05-26T00:10:04.515Z,67.70
2023-05-26T00:13:06.633Z,68.00
2023-05-26T00:16:09.620Z,67.30
2023-05-26T00:19:12.203Z,67.90
2023-05-26T00:22:14.228Z,67.90
2023-05-26T00:25:16.269Z,67.60
2023-05-26T00:28:18.316Z,68.20
2023-05-26T00:31:20.521Z,67.50
2023-05-26T00:34:22.623Z,68.10
2023-05-26T00:37:24.639Z,67.70
2023-05-26T00:40:26.867Z,68.20
2023-05-26T00:43:28.816Z,68.10
2023-05-26T00:46:31.809Z,68.20
2023-05-26T00:49:35.155Z,68.20
2023-05-26T00:52:37.271Z,67.90
2023-05-26T00:55:39.567Z,68.80
2023-05-26T00:58:41.822Z,68.70
2023-05-26T01:01:44.471Z,68.70
2023-05-26T01:04:47.218Z,68.60
2023-05-26T01:07:49.268Z,69.50
2023-05-26T01:10:53.554Z,69.10
2023-05-26T01:14:08.711Z,69.00
2023-05-26T01:17:18.691Z,69.70
2023-05-26T01:20:54.200Z,70.10
2023-05-26T01:24:12.463Z,69.40
2023-05-26T01:27:32.906Z,70.10
2023-05-26T01:30:35.654Z,69.90
2023-05-26T01:33:37.845Z,70.40
2023-05-26T01:36:42.097Z,70.40
2023-05-26T01:39:44.154Z,70.70
2023-05-26T01:42:57.137Z,70.70
2023-05-26T01:46:20.412Z,71.00
2023-05-26T01:49:27.487Z,71.00
2023-05-26T01:52:35.390Z,70.60
2023-05-26T01:55:39.615Z,70.80
2023-05-26T01:58:42.174Z,70.30
2023-05-26T02:01:44.764Z,70.20
2023-05-26T02:04:51.575Z,70.40
2023-05-26T02:07:54.132Z,70.00
2023-05-26T02:10:57.220Z,70.60
2023-05-26T02:14:00.255Z,69.80
2023-05-26T02:17:07.486Z,70.50
2023-05-26T02:20:10.269Z,69.30
2023-05-26T02:23:12.744Z,70.50
2023-05-26T02:26:15.296Z,70.40
2023-05-26T02:29:18.428Z,69.50
2023-05-26T02:32:21.797Z,69.70
2023-05-26T02:35:24.170Z,70.60
2023-05-26T02:38:26.566Z,70.50
2023-05-26T02:41:28.935Z,70.40
2023-05-26T02:44:31.112Z,69.60
2023-05-26T02:47:33.422Z,70.00
2023-05-26T02:50:35.912Z,70.10
2023-05-26T02:53:40.162Z,70.60
2023-05-26T02:56:45.226Z,71.10
2023-05-26T02:59:47.904Z,70.20
2023-05-26T03:02:51.196Z,70.40
2023-05-26T03:05:53.932Z,70.70
2023-05-26T03:08:56.211Z,70.80
2023-05-26T03:11:58.564Z,70.50
2023-05-26T03:15:01.190Z,71.20
2023-05-26T03:18:05.519Z,71.70
2023-05-26T03:21:47.406Z,71.70
2023-05-26T03:24:31.205Z,71.70
2023-05-26T03:27:34.593Z,72.30
2023-05-26T03:30:37.638Z,72.20
2023-05-26T03:33:40.066Z,72.80
2023-05-26T03:36:43.355Z,73.50
2023-05-26T03:39:54.178Z,72.50
2023-05-26T03:43:01.454Z,73.30
2023-05-26T03:46:06.315Z,73.30
2023-05-26T03:49:08.406Z,72.60
2023-05-26T03:52:10.636Z,73.30
2023-05-26T03:55:15.265Z,73.60
2023-05-26T03:58:19.791Z,73.60
2023-05-26T04:01:23.335Z,72.90
2023-05-26T04:04:26.651Z,73.40
2023-05-26T04:07:28.804Z,73.90
2023-05-26T04:10:30.870Z,73.40
2023-05-26T04:13:37.573Z,73.60
2023-05-26T04:16:39.699Z,73.70
2023-05-26T04:19:41.771Z,73.60
2023-05-26T04:22:43.833Z,73.70
2023-05-26T04:25:46.045Z,73.30
2023-05-26T04:28:56.574Z,73.80
2023-05-26T04:32:24.119Z,73.20
2023-05-26T04:35:36.132Z,73.30
2023-05-26T04:38:40.912Z,73.40
2023-05-26T04:41:43.088Z,73.40
2023-05-26T04:44:46.110Z,73.20
2023-05-26T04:47:48.421Z,73.40
2023-05-26T04:50:52.817Z,73.40
2023-05-26T04:53:54.865Z,73.30
2023-05-26T04:56:57.410Z,73.10
2023-05-26T05:00:10.330Z,73.60
2023-05-26T05:03:13.109Z,72.50
2023-05-26T05:06:23.688Z,73.70
2023-05-26T05:09:25.843Z,72.70
2023-05-26T05:12:30.219Z,72.40
2023-05-26T05:15:32.734Z,73.10
2023-05-26T05:18:37.101Z,71.70
2023-05-26T05:21:39.334Z,71.50
2023-05-26T05:24:41.572Z,72.30
2023-05-26T05:27:43.694Z,71.80
2023-05-26T05:30:46.675Z,71.20
2023-05-26T05:33:49.654Z,71.00
2023-05-26T05:36:51.536Z,70.30
2023-05-26T05:39:53.587Z,68.90
2023-05-26T05:42:55.716Z,69.40
2023-05-26T05:45:57.858Z,68.60
2023-05-26T05:49:28.750Z,68.00
2023-05-26T05:52:30.847Z,68.20
2023-05-26T05:55:32.905Z,64.70
2023-05-26T05:58:35.017Z,65.30
2023-05-26T06:01:37.912Z,63.00
2023-05-26T06:04:40.054Z,63.50
2023-05-26T06:07:43.481Z,61.80
2023-05-26T06:10:48.318Z,61.50
2023-05-26T06:13:50.556Z,61.10
2023-05-26T06:16:53.783Z,60.70
2023-05-26T06:19:55.787Z,59.60
2023-05-26T06:23:02.017Z,59.20
2023-05-26T06:26:04.494Z,58.00
2023-05-26T06:29:06.833Z,58.70
2023-05-26T06:32:09.017Z,56.40
2023-05-26T06:35:10.984Z,55.90
2023-05-26T06:38:13.130Z,55.10
2023-05-26T06:41:15.092Z,55.80
2023-05-26T06:44:17.669Z,54.60
2023-05-26T06:47:21.130Z,53.70
2023-05-26T06:50:23.741Z,52.50
2023-05-26T06:53:25.815Z,52.40
2023-05-26T06:56:27.806Z,53.30
2023-05-26T06:59:29.763Z,51.50
2023-05-26T07:02:31.823Z,51.10
2023-05-26T07:05:57.535Z,49.40
2023-05-26T07:09:01.246Z,50.10
2023-05-26T07:12:08.184Z,48.80
2023-05-26T07:15:17.876Z,50.50
2023-05-26T07:18:22.147Z,50.10
2023-05-26T07:21:24.318Z,48.50
2023-05-26T07:24:26.553Z,48.10
2023-05-26T07:27:28.774Z,47.80
2023-05-26T07:30:30.974Z,49.10
2023-05-26T07:33:51.101Z,47.60
2023-05-26T07:36:55.356Z,48.00
2023-05-26T07:39:57.468Z,47.70
2023-05-26T07:43:03.513Z,46.10
2023-05-26T07:46:05.846Z,45.40
2023-05-26T07:49:10.112Z,44.50
2023-05-26T07:52:12.234Z,43.60
2023-05-26T07:55:14.278Z,43.40
2023-05-26T07:58:16.345Z,43.60
2023-05-26T08:01:18.410Z,42.10
2023-05-26T08:04:20.596Z,41.60
2023-05-26T08:07:23.086Z,43.40
2023-05-26T08:10:25.643Z,43.40
2023-05-26T08:13:27.749Z,44.20
2023-05-26T08:16:29.835Z,43.20
2023-05-26T08:19:31.877Z,41.10
2023-05-26T08:22:33.926Z,41.60
2023-05-26T08:25:35.915Z,40.40
2023-05-26T08:28:38.074Z,42.30
2023-05-26T08:31:40.151Z,42.20
2023-05-26T08:34:42.287Z,42.00
2023-05-26T08:37:44.344Z,41.80
2023-05-26T08:40:47.195Z,41.90
2023-05-26T08:44:01.849Z,42.10
2023-05-26T08:47:09.521Z,42.50
2023-05-26T08:50:12.640Z,40.40
2023-05-26T08:53:16.921Z,40.00
2023-05-26T08:56:20.949Z,41.80
2023-05-26T08:59:23.557Z,43.00
2023-05-26T09:02:26.226Z,42.10
2023-05-26T09:05:31.057Z,41.80
2023-05-26T09:08:34.147Z,40.40
2023-05-26T09:11:47.269Z,39.40
2023-05-26T09:14:58.982Z,41.10
2023-05-26T09:18:06.155Z,39.70
2023-05-26T09:21:08.512Z,40.00
2023-05-26T09:24:10.592Z,40.70
2023-05-26T09:27:20.240Z,40.10
2023-05-26T09:30:22.338Z,40.40
2023-05-26T09:33:24.469Z,40.90
2023-05-26T09:36:26.839Z,40.20
2023-05-26T09:39:33.113Z,40.90
2023-05-26T09:42:38.205Z,39.20
2023-05-26T09:45:41.380Z,39.00
2023-05-26T09:48:52.786Z,39.20
2023-05-26T09:52:10.549Z,40.20
2023-05-26T09:55:15.547Z,40.40
2023-05-26T09:58:22.507Z,39.80
2023-05-26T10:01:25.008Z,39.50
2023-05-26T10:04:27.168Z,41.90
2023-05-26T10:07:29.477Z,38.50
2023-05-26T10:10:32.155Z,38.90
2023-05-26T10:13:34.954Z,39.80
2023-05-26T10:16:38.887Z,39.60
2023-05-26T10:19:41.537Z,40.90
2023-05-26T10:23:01.208Z,39.70
2023-05-26T10:26:12.018Z,41.90
2023-05-26T10:29:18.650Z,39.70
2023-05-26T10:32:52.491Z,40.50
2023-05-26T10:35:58.982Z,41.10
2023-05-26T10:39:01.116Z,42.10
2023-05-26T10:42:19.462Z,42.10
2023-05-26T10:45:21.725Z,42.90
2023-05-26T10:48:26.834Z,41.90
2023-05-26T10:51:32.986Z,42.10
2023-05-26T11:07:28.431Z,41.20
2023-05-26T11:10:59.747Z,41.50
2023-05-26T11:14:09.330Z,44.30
2023-05-26T11:17:13.581Z,41.70
2023-05-26T11:20:17.381Z,42.40
2023-05-26T11:23:20.723Z,42.00
2023-05-26T11:26:23.292Z,41.30
2023-05-26T11:29:25.351Z,41.80
2023-05-26T11:32:27.401Z,42.40
2023-05-26T11:35:30.037Z,41.90
2023-05-26T11:38:34.044Z,40.80
2023-05-26T11:41:36.190Z,42.20
2023-05-26T11:44:39.218Z,40.70
2023-05-26T11:47:41.266Z,41.60
2023-05-26T11:50:43.585Z,41.40
2023-05-26T11:53:45.690Z,44.60
2023-05-26T11:56:48.971Z,41.10
2023-05-26T11:59:53.415Z,40.20
2023-05-26T12:02:55.560Z,40.70
2023-05-26T12:06:31.362Z,41.60
2023-05-26T12:09:33.517Z,40.40
2023-05-26T12:12:51.941Z,39.80
2023-05-26T12:15:56.543Z,40.50
2023-05-26T12:19:03.030Z,43.20
2023-05-26T12:22:07.752Z,40.00
2023-05-26T12:25:10.042Z,42.00
2023-05-26T12:28:12.043Z,40.70
2023-05-26T12:31:14.116Z,41.20
2023-05-26T12:34:23.759Z,40.20
2023-05-26T12:37:25.800Z,41.10
2023-05-26T12:40:28.142Z,40.60
2023-05-26T12:43:30.153Z,40.50
2023-05-26T12:46:32.433Z,39.40
2023-05-26T12:49:34.464Z,40.90
2023-05-26T12:52:36.461Z,39.90
2023-05-26T12:55:38.709Z,39.50
2023-05-26T12:58:41.475Z,39.80
2023-05-26T13:01:43.615Z,41.10
2023-05-26T13:04:45.691Z,40.60
2023-05-26T13:07:47.633Z,39.60
2023-05-26T13:10:50.226Z,39.30
2023-05-26T13:13:52.200Z,39.10
2023-05-26T13:16:54.329Z,39.40
2023-05-26T13:19:56.483Z,39.20
2023-05-26T13:22:58.681Z,39.50
2023-05-26T13:26:00.723Z,40.50
2023-05-26T13:29:02.846Z,39.70
2023-05-26T13:32:05.131Z,38.40
2023-05-26T13:35:07.877Z,39.80
2023-05-26T13:38:09.935Z,38.50
2023-05-26T13:41:13.277Z,39.90
2023-05-26T13:44:15.317Z,38.60
2023-05-26T13:47:17.413Z,40.00
2023-05-26T13:50:21.628Z,40.40
2023-05-26T13:53:24.457Z,39.10
2023-05-26T13:58:47.235Z,38.40
2023-05-26T13:59:48.659Z,37.70
2023-05-26T14:02:50.917Z,39.10
2023-05-26T14:05:53.052Z,38.70
2023-05-26T14:08:56.531Z,40.30
2023-05-26T14:11:58.707Z,38.90
2023-05-26T14:15:00.775Z,39.40
2023-05-26T14:18:08.153Z,40.10
2023-05-26T14:22:05.469Z,39.20
2023-05-26T14:24:35.691Z,37.30
2023-05-26T14:27:39.848Z,37.80
2023-05-26T14:30:42.022Z,38.90
2023-05-26T14:33:44.078Z,39.90
2023-05-26T14:36:48.991Z,38.80
2023-05-26T14:39:51.140Z,37.70
2023-05-26T14:43:04.905Z,38.10
2023-05-26T14:46:10.489Z,37.60
2023-05-26T14:49:13.842Z,38.60
2023-05-26T14:52:18.998Z,37.20
2023-05-26T14:55:26.848Z,39.00
2023-05-26T14:58:39.646Z,38.60
2023-05-26T15:01:44.369Z,38.20
2023-05-26T15:04:59.299Z,39.30
2023-05-26T15:08:09.304Z,39.00
2023-05-26T15:11:13.739Z,38.80
2023-05-26T15:14:18.982Z,39.30
2023-05-26T15:17:23.903Z,37.80
2023-05-26T15:20:50.288Z,39.30
2023-05-26T15:27:32.665Z,38.80
2023-05-26T15:30:34.661Z,38.10
2023-05-26T15:33:36.925Z,40.90
2023-05-26T15:36:41.666Z,39.30
2023-05-26T15:39:44.270Z,39.20
2023-05-26T15:42:46.297Z,38.50
2023-05-26T15:45:48.587Z,39.90
2023-05-26T15:48:50.854Z,38.90
2023-05-26T15:51:54.381Z,39.30
2023-05-26T15:54:58.926Z,39.90
2023-05-26T15:58:02.803Z,39.70
2023-05-26T16:01:05.905Z,39.10
2023-05-26T16:04:11.444Z,40.00
2023-05-26T16:07:13.481Z,38.70
2023-05-26T16:10:15.606Z,39.50
2023-05-26T16:13:20.039Z,39.20
2023-05-26T16:16:22.682Z,39.20
2023-05-26T16:19:27.270Z,41.20
2023-05-26T16:22:29.295Z,40.10
2023-05-26T16:25:31.364Z,40.00
2023-05-26T16:28:33.423Z,40.50
2023-05-26T16:31:36.044Z,40.60
2023-05-26T16:34:38.600Z,41.60
2023-05-26T16:37:40.746Z,40.60
2023-05-26T16:40:43.128Z,42.00
2023-05-26T16:43:49.112Z,41.10
2023-05-26T16:46:51.325Z,40.70
2023-05-26T16:49:53.635Z,40.90
2023-05-26T16:52:55.960Z,40.10
2023-05-26T16:55:58.308Z,41.40
2023-05-26T16:59:00.670Z,40.40
2023-05-26T17:02:02.946Z,40.80
2023-05-26T17:05:08.025Z,40.90
2023-05-26T17:08:10.428Z,40.60
2023-05-26T17:11:15.494Z,40.60
2023-05-26T17:14:17.778Z,40.50
2023-05-26T17:17:20.906Z,40.60
2023-05-26T17:20:23.131Z,41.10
2023-05-26T17:23:26.352Z,42.10
2023-05-26T17:26:28.756Z,41.50
2023-05-26T17:29:31.077Z,41.10
2023-05-26T17:32:33.226Z,41.80
2023-05-26T17:35:35.377Z,41.60
2023-05-26T17:38:39.653Z,42.20
2023-05-26T17:41:42.026Z,43.50
2023-05-26T17:44:46.570Z,44.50
2023-05-26T17:47:51.520Z,44.30
2023-05-26T17:50:56.687Z,44.90
2023-05-26T17:53:58.870Z,44.70
2023-05-26T17:57:01.284Z,45.60
2023-05-26T18:00:04.175Z,45.60
2023-05-26T18:03:14.812Z,46.30
2023-05-26T18:06:17.222Z,46.70
2023-05-26T18:09:19.284Z,47.10
2023-05-26T18:12:23.248Z,46.60
2023-05-26T18:15:25.450Z,46.90
2023-05-26T18:18:30.390Z,47.60
2023-05-26T18:21:32.808Z,47.60
2023-05-26T18:24:34.851Z,48.30
2023-05-26T18:27:37.480Z,48.00
2023-05-26T18:30:39.654Z,48.00
2023-05-26T18:33:41.742Z,48.90
2023-05-26T18:36:44.108Z,48.50
2023-05-26T18:39:52.053Z,49.20
2023-05-26T18:42:54.083Z,49.50
2023-05-26T18:45:56.081Z,49.70
2023-05-26T18:48:58.413Z,50.10
2023-05-26T18:52:00.506Z,50.00
2023-05-26T18:55:02.667Z,50.80
2023-05-26T18:58:04.794Z,51.00
2023-05-26T19:01:06.911Z,51.00
2023-05-26T19:04:09.147Z,50.80
2023-05-26T19:07:11.743Z,51.20
2023-05-26T19:10:15.780Z,51.50
2023-05-26T19:13:17.952Z,51.20
2023-05-26T19:16:20.489Z,51.60
2023-05-26T19:19:23.217Z,51.00
2023-05-26T19:22:29.146Z,51.90
2023-05-26T19:25:33.791Z,51.70
2023-05-26T19:28:39.473Z,51.80
2023-05-26T19:31:46.858Z,52.60
2023-05-26T19:34:49.035Z,52.60
2023-05-26T19:37:52.025Z,52.20
2023-05-26T19:47:30.789Z,53.10
2023-05-26T19:50:33.175Z,53.00
2023-05-26T19:53:35.443Z,53.20
2023-05-26T19:56:37.520Z,53.50
2023-05-26T19:59:39.901Z,53.20
2023-05-26T20:02:42.055Z,53.20
2023-05-26T20:05:45.973Z,53.50
2023-05-26T20:08:48.108Z,54.00
2023-05-26T20:11:50.386Z,54.80
2023-05-26T20:14:52.384Z,54.60
2023-05-26T20:17:54.531Z,54.40
2023-05-26T20:20:56.900Z,55.00
2023-05-26T20:23:59.401Z,55.40
2023-05-26T20:27:01.762Z,55.30
2023-05-26T20:30:04.267Z,55.20
2023-05-26T20:33:07.645Z,55.40
2023-05-26T20:36:12.972Z,56.10
2023-05-26T20:39:15.390Z,56.30
2023-05-26T20:42:17.589Z,56.00
2023-05-26T20:45:20.134Z,55.90
2023-05-26T20:48:22.272Z,56.40
2023-05-26T20:51:29.088Z,55.80
2023-05-26T20:54:34.125Z,56.80
2023-05-26T20:57:36.604Z,56.60
2023-05-26T21:00:38.974Z,56.60
2023-05-26T21:03:41.527Z,56.80
2023-05-26T21:06:43.775Z,56.70
2023-05-26T21:09:45.899Z,56.50
2023-05-26T21:12:48.687Z,56.80
2023-05-26T21:15:53.370Z,57.50
2023-05-26T21:18:56.031Z,57.30
2023-05-26T21:21:58.142Z,57.20
2023-05-26T21:25:02.953Z,57.60
2023-05-26T21:28:07.728Z,57.70
2023-05-26T21:31:10.546Z,58.50
2023-05-26T21:34:12.816Z,58.00
2023-05-26T21:37:15.048Z,58.40
2023-05-26T21:40:17.306Z,58.30
2023-05-26T21:43:19.504Z,59.10
2023-05-26T21:46:21.527Z,59.60
2023-05-26T21:49:24.045Z,60.00
2023-05-26T21:52:26.271Z,60.30
2023-05-26T21:55:29.005Z,60.60
2023-05-26T21:58:31.213Z,60.90
2023-05-26T22:01:33.560Z,62.10
2023-05-26T22:04:35.680Z,61.40
2023-05-26T22:07:45.510Z,61.80
2023-05-26T22:10:49.654Z,61.20
2023-05-26T22:13:52.199Z,62.20
2023-05-26T22:16:54.870Z,61.90
2023-05-26T22:19:57.318Z,62.50
2023-05-26T22:22:59.387Z,62.10
2023-05-26T22:26:01.544Z,62.50
2023-05-26T22:29:03.820Z,62.70
2023-05-26T22:32:06.679Z,62.10
2023-05-26T22:35:09.238Z,62.60
2023-05-26T22:38:12.034Z,61.70
2023-05-26T22:41:20.422Z,62.00
2023-05-26T22:44:22.897Z,63.20
2023-05-26T22:47:25.243Z,63.60
2023-05-26T22:50:27.328Z,63.30
2023-05-26T22:53:32.546Z,64.00
2023-05-26T22:56:34.871Z,63.70
2023-05-26T22:59:39.689Z,63.80
2023-05-26T23:02:43.015Z,64.00
2023-05-26T23:05:45.285Z,64.70
2023-05-26T23:08:48.306Z,64.80
2023-05-26T23:11:50.759Z,63.90
2023-05-26T23:14:53.141Z,64.80
2023-05-26T23:17:58.937Z,65.30
2023-05-26T23:21:01.340Z,65.20
2023-05-26T23:24:03.449Z,66.00
2023-05-26T23:27:05.721Z,66.10
2023-05-26T23:30:08.460Z,65.20
2023-05-26T23:33:12.916Z,65.80
2023-05-26T23:36:15.073Z,65.60
2023-05-26T23:39:17.099Z,65.50
2023-05-26T23:42:19.394Z,65.90
2023-05-26T23:45:21.964Z,65.80
2023-05-26T23:48:24.217Z,65.70
2023-05-26T23:51:26.294Z,65.40
2023-05-26T23:54:30.223Z,65.80
2023-05-26T23:57:32.393Z,65.70
